Maran Hercules — SVCQ3 — position and weather

sailwx.info

Track history (hours):
 
Tides and Currents Weather Stations Pressure Air Temp Water Temp Dewpoint Dewpoint Depression Visibility Wind Speed Wind Dir Waves Ship Positions

Maran Hercules

Last reported at 2018-May-11 16:09 UTC. Time now 2018-May-25 09:16 UTC.
Position N 40°09' W 029°45'.
Warning: this ship's position is 13 days out of date.

Length 274 m; draft 15.1 m.

Type: Tanker. MMSI: 241517000.

Date/timePositionNaut miles runAvg speedWind from/ knotsBaromVisibWave heightAir tempDewpointWater temp
2018-May-11 16:09N 40°09' W 029°45'3612.6
2018-May-11 13:15N 40°04' W 028°58'412.0
2018-May-11 12:54N 40°04' W 028°52'1011.8
2018-May-11 12:03N 40°02' W 028°39'13413.2
2018-May-11 01:51N 39°36' W 025°48'813.6
2018-May-11 01:16N 39°34' W 025°38'2213.6
2018-May-10 23:38N 39°30' W 025°09'7412.9
2018-May-10 17:54N 39°14' W 023°36'35113.6
2018-May-09 16:10N 37°43' W 016°22'1313.6
2018-May-09 15:13N 37°40' W 016°07'25113.7
2018-May-08 20:54N 36°19' W 011°09'613.8
2018-May-08 20:29N 36°17' W 011°02'913.9
2018-May-08 19:52N 36°14' W 010°52'613.9
2018-May-08 19:26N 36°12' W 010°45'12113.6
2018-May-08 10:32N 35°58' W 008°16'113.2
2018-May-08 10:28N 35°58' W 008°15'13013.1
2018-May-08 00:34N 35°58' W 005°35'110.6
2018-May-08 00:30N 35°58' W 005°34'510.1
2018-May-08 00:00N 35°59' W 005°28'5 9.6
2018-May-07 23:30N 36°01' W 005°23'4 8.6
2018-May-07 23:00N 36°03' W 005°18'3 5.0
2018-May-07 22:30N 36°04' W 005°15'2 3.5
2018-May-07 22:00N 36°06' W 005°16'1 1.3
2018-May-07 21:30N 36°07' W 005°15'0 0.6
2018-May-07 21:00N 36°07' W 005°16'0 0.3
2018-May-07 20:30N 36°07' W 005°16'2 3.5
2018-May-07 20:00N 36°07' W 005°14'1 0.2
2018-May-07 17:05N 36°07' W 005°14'0 3.8
2018-May-07 17:00N 36°07' W 005°14'0 0.6
2018-May-07 16:30N 36°07' W 005°15'0 0.7
2018-May-07 15:57N 36°07' W 005°14'0 0.7
2018-May-07 15:30N 36°07' W 005°14'0 0.6
2018-May-07 15:00N 36°07' W 005°14'0 0.7
2018-May-07 14:30N 36°08' W 005°14'1 0.6
2018-May-07 12:17N 36°07' W 005°12'0 0.6
2018-May-07 12:00N 36°07' W 005°13'1 1.3
2018-May-07 11:30N 36°07' W 005°13'2 3.2
2018-May-07 11:00N 36°07' W 005°15'1 2.8
2018-May-07 10:30N 36°06' W 005°17'0 0.6
2018-May-07 10:00N 36°07' W 005°17'0 0.7
2018-May-07 09:26N 36°07' W 005°16'  
2018-May-03 05:25N 36°27' E 014°03'13 9.5
2018-May-03 04:03N 36°22' E 014°18'110.1
2018-May-03 03:58N 36°22' E 014°19'510.3
2018-May-03 03:29N 36°20' E 014°24'510.4
2018-May-03 03:00N 36°18' E 014°30'510.3
2018-May-03 02:30N 36°16' E 014°36'510.1
2018-May-03 02:00N 36°15' E 014°42'610.1
2018-May-03 01:23N 36°12' E 014°49'  
Track history (hours):
 
Tides and Currents Weather Stations Pressure Air Temp Water Temp Dewpoint Dewpoint Depression Visibility Wind Speed Wind Dir Waves Ship Positions

Maran Hercules

Last reported at 2018-May-11 16:09 UTC. Time now 2018-May-25 09:16 UTC.
Position N 40°09' W 029°45'.
Warning: this ship's position is 13 days out of date.

Length 274 m; draft 15.1 m.

Type: Tanker. MMSI: 241517000.

Date/timePositionNaut miles runAvg speedWind from/ knotsBaromVisibWave heightAir tempDewpointWater temp
2018-May-11 16:09N 40°09' W 029°45'3612.6
2018-May-11 13:15N 40°04' W 028°58'412.0
2018-May-11 12:54N 40°04' W 028°52'1011.8
2018-May-11 12:03N 40°02' W 028°39'13413.2
2018-May-11 01:51N 39°36' W 025°48'813.6
2018-May-11 01:16N 39°34' W 025°38'2213.6
2018-May-10 23:38N 39°30' W 025°09'7412.9
2018-May-10 17:54N 39°14' W 023°36'35113.6
2018-May-09 16:10N 37°43' W 016°22'1313.6
2018-May-09 15:13N 37°40' W 016°07'25113.7
2018-May-08 20:54N 36°19' W 011°09'613.8
2018-May-08 20:29N 36°17' W 011°02'913.9
2018-May-08 19:52N 36°14' W 010°52'613.9
2018-May-08 19:26N 36°12' W 010°45'12113.6
2018-May-08 10:32N 35°58' W 008°16'113.2
2018-May-08 10:28N 35°58' W 008°15'13013.1
2018-May-08 00:34N 35°58' W 005°35'110.6
2018-May-08 00:30N 35°58' W 005°34'510.1
2018-May-08 00:00N 35°59' W 005°28'5 9.6
2018-May-07 23:30N 36°01' W 005°23'4 8.6
2018-May-07 23:00N 36°03' W 005°18'3 5.0
2018-May-07 22:30N 36°04' W 005°15'2 3.5
2018-May-07 22:00N 36°06' W 005°16'1 1.3
2018-May-07 21:30N 36°07' W 005°15'0 0.6
2018-May-07 21:00N 36°07' W 005°16'0 0.3
2018-May-07 20:30N 36°07' W 005°16'2 3.5
2018-May-07 20:00N 36°07' W 005°14'1 0.2
2018-May-07 17:05N 36°07' W 005°14'0 3.8
2018-May-07 17:00N 36°07' W 005°14'0 0.6
2018-May-07 16:30N 36°07' W 005°15'0 0.7
2018-May-07 15:57N 36°07' W 005°14'0 0.7
2018-May-07 15:30N 36°07' W 005°14'0 0.6
2018-May-07 15:00N 36°07' W 005°14'0 0.7
2018-May-07 14:30N 36°08' W 005°14'1 0.6
2018-May-07 12:17N 36°07' W 005°12'0 0.6
2018-May-07 12:00N 36°07' W 005°13'1 1.3
2018-May-07 11:30N 36°07' W 005°13'2 3.2
2018-May-07 11:00N 36°07' W 005°15'1 2.8
2018-May-07 10:30N 36°06' W 005°17'0 0.6
2018-May-07 10:00N 36°07' W 005°17'0 0.7
2018-May-07 09:26N 36°07' W 005°16'  
2018-May-03 05:25N 36°27' E 014°03'13 9.5
2018-May-03 04:03N 36°22' E 014°18'110.1
2018-May-03 03:58N 36°22' E 014°19'510.3
2018-May-03 03:29N 36°20' E 014°24'510.4
2018-May-03 03:00N 36°18' E 014°30'510.3
2018-May-03 02:30N 36°16' E 014°36'510.1
2018-May-03 02:00N 36°15' E 014°42'610.1
2018-May-03 01:23N 36°12' E 014°49'  

Dump ship's entire track history